createdAt,value
2023-04-09T00:00:18.776Z,24.0732
2023-04-09T00:01:22.935Z,24.0431
2023-04-09T00:02:26.905Z,24.1081
2023-04-09T00:03:30.813Z,24.1399
2023-04-09T00:04:34.765Z,24.1188
2023-04-09T00:05:38.627Z,24.1355
2023-04-09T00:06:42.535Z,24.1097
2023-04-09T00:07:46.425Z,24.0883
2023-04-09T00:08:50.813Z,24.0872
2023-04-09T00:09:54.775Z,24.1235
2023-04-09T00:10:58.914Z,24.0990
2023-04-09T00:12:02.899Z,24.0847
2023-04-09T00:13:06.723Z,24.0803
2023-04-09T00:14:10.627Z,24.0560
2023-04-09T00:15:23.996Z,24.0138
2023-04-09T00:16:19.054Z,23.9605
2023-04-09T00:17:22.958Z,23.9686
2023-04-09T00:18:26.836Z,23.9710
2023-04-09T00:19:30.718Z,24.0278
2023-04-09T00:20:34.617Z,24.0358
2023-04-09T00:21:38.850Z,24.0129
2023-04-09T00:22:42.746Z,24.0267
2023-04-09T00:23:42.942Z,24.0554
2023-04-09T00:24:46.848Z,24.0614
2023-04-09T00:25:50.738Z,24.1083
2023-04-09T00:26:54.639Z,24.0600
2023-04-09T00:27:58.515Z,23.9995
2023-04-09T00:29:02.418Z,23.9917
2023-04-09T00:30:06.308Z,24.0218
2023-04-09T00:31:10.225Z,24.0583
2023-04-09T00:32:14.084Z,23.9695
2023-04-09T00:33:17.990Z,23.9657
2023-04-09T00:34:21.880Z,24.0518
2023-04-09T00:35:25.802Z,24.0663
2023-04-09T00:36:29.900Z,24.0547
2023-04-09T00:37:33.809Z,23.9770
2023-04-09T00:38:37.709Z,23.9995
2023-04-09T00:39:41.668Z,24.0033
2023-04-09T00:40:45.504Z,24.0073
2023-04-09T00:41:49.410Z,23.9748
2023-04-09T00:42:53.297Z,23.9786
2023-04-09T00:43:57.233Z,23.9684
2023-04-09T00:45:01.131Z,23.9762
2023-04-09T00:46:05.046Z,23.9361
2023-04-09T00:47:08.953Z,23.9437
2023-04-09T00:48:12.824Z,23.9615
2023-04-09T00:49:16.728Z,23.8771
2023-04-09T00:50:20.636Z,23.9025
2023-04-09T00:51:24.543Z,23.9508
2023-04-09T00:52:28.414Z,23.9666
2023-04-09T00:53:32.323Z,23.9116
2023-04-09T00:54:36.234Z,23.9041
2023-04-09T00:55:40.141Z,23.9136
2023-04-09T00:56:44.010Z,23.8620
2023-04-09T00:57:47.935Z,23.8478
2023-04-09T00:58:52.377Z,23.8869
2023-04-09T00:59:56.443Z,23.9276
2023-04-09T01:01:00.352Z,23.9784
2023-04-09T01:02:04.276Z,23.9279
2023-04-09T01:03:08.289Z,23.8782
2023-04-09T01:04:12.211Z,23.8629
2023-04-09T01:05:16.112Z,23.8762
2023-04-09T01:06:20.176Z,23.8878
2023-04-09T01:07:24.063Z,23.8259
2023-04-09T01:08:27.965Z,23.8150
2023-04-09T01:09:31.847Z,23.8660
2023-04-09T01:10:35.762Z,23.8649
2023-04-09T01:11:39.642Z,23.8444
2023-04-09T01:12:43.542Z,23.8600
2023-04-09T01:13:47.760Z,23.8153
2023-04-09T01:14:51.659Z,23.8313
2023-04-09T01:15:55.642Z,23.8306
2023-04-09T01:16:59.542Z,23.8366
2023-04-09T01:18:03.489Z,23.8306
2023-04-09T01:19:07.343Z,23.8767
2023-04-09T01:20:11.229Z,23.9199
2023-04-09T01:21:15.355Z,23.8845
2023-04-09T01:22:19.235Z,23.8736
2023-04-09T01:23:23.138Z,23.8883
2023-04-09T01:24:27.249Z,23.8493
2023-04-09T01:25:31.150Z,23.8698
2023-04-09T01:26:35.058Z,23.9089
2023-04-09T01:27:38.968Z,23.9067
2023-04-09T01:28:42.868Z,23.9221
2023-04-09T01:29:46.760Z,23.8934
2023-04-09T01:30:50.717Z,23.8847
2023-04-09T01:31:54.833Z,23.9528
2023-04-09T01:32:58.805Z,23.9688
2023-04-09T01:34:02.873Z,23.8664
2023-04-09T01:35:06.778Z,23.8453
2023-04-09T01:36:10.676Z,23.8001
2023-04-09T01:37:14.564Z,23.8377
2023-04-09T01:38:18.471Z,23.8373
2023-04-09T01:39:22.604Z,23.8453
2023-04-09T01:40:26.508Z,23.8235
2023-04-09T01:41:30.728Z,23.8758
2023-04-09T01:42:34.617Z,23.8858
2023-04-09T01:43:38.506Z,23.8593
2023-04-09T01:44:42.419Z,23.8616
2023-04-09T01:45:46.327Z,23.7979
2023-04-09T01:46:50.299Z,23.8037
2023-04-09T01:47:54.241Z,23.7886
2023-04-09T01:48:58.361Z,23.7908
2023-04-09T01:50:02.317Z,23.7955
2023-04-09T01:51:06.287Z,23.8469
2023-04-09T01:52:10.192Z,23.7952
2023-04-09T01:53:14.090Z,23.8061
2023-04-09T01:54:17.983Z,23.8186
2023-04-09T01:55:21.885Z,23.8126
2023-04-09T01:56:25.982Z,23.8012
2023-04-09T01:57:29.876Z,23.8026
2023-04-09T01:58:33.781Z,23.8070
2023-04-09T01:59:37.965Z,23.8733
2023-04-09T02:00:41.859Z,23.9116
2023-04-09T02:01:45.833Z,23.9107
2023-04-09T02:02:49.858Z,23.8916
2023-04-09T02:03:53.877Z,23.8809
2023-04-09T02:04:57.777Z,23.9227
2023-04-09T02:05:58.126Z,23.8648
2023-04-09T02:07:02.012Z,23.8838
2023-04-09T02:08:05.913Z,23.8849
2023-04-09T02:09:09.997Z,23.8607
2023-04-09T02:11:18.988Z,23.8328
2023-04-09T02:11:18.988Z,23.7717
2023-04-09T02:12:22.866Z,23.8162
2023-04-09T02:13:26.771Z,23.7892
2023-04-09T02:14:30.668Z,23.7392
2023-04-09T02:15:34.585Z,23.7779
2023-04-09T02:16:38.747Z,23.8153
2023-04-09T02:17:42.656Z,23.7712
2023-04-09T02:18:46.779Z,23.7839
2023-04-09T02:19:50.650Z,23.7781
2023-04-09T02:20:54.545Z,23.7218
2023-04-09T02:21:58.437Z,23.7336
2023-04-09T02:23:02.345Z,23.7173
2023-04-09T02:24:06.259Z,23.7122
2023-04-09T02:25:10.172Z,23.7975
2023-04-09T02:26:14.051Z,23.8471
2023-04-09T02:27:18.007Z,23.8573
2023-04-09T02:28:21.874Z,23.8667
2023-04-09T02:29:25.797Z,23.8622
2023-04-09T02:30:29.664Z,23.8469
2023-04-09T02:31:33.866Z,23.8164
2023-04-09T02:32:37.831Z,23.7961
2023-04-09T02:33:41.703Z,23.7429
2023-04-09T02:34:45.601Z,23.7652
2023-04-09T02:35:49.546Z,23.7683
2023-04-09T02:36:53.404Z,23.8081
2023-04-09T02:37:57.318Z,23.7897
2023-04-09T02:39:01.438Z,23.7543
2023-04-09T02:40:05.373Z,23.7242
2023-04-09T02:41:09.257Z,23.7116
2023-04-09T02:42:13.357Z,23.7347
2023-04-09T02:43:17.273Z,23.7554
2023-04-09T02:44:21.146Z,23.7274
2023-04-09T02:45:25.062Z,23.7955
2023-04-09T02:46:29.013Z,23.7863
2023-04-09T02:47:32.968Z,23.7590
2023-04-09T02:48:36.839Z,23.7289
2023-04-09T02:49:40.742Z,23.8231
2023-04-09T02:50:44.664Z,23.9018
2023-04-09T02:51:48.623Z,23.8389
2023-04-09T02:52:52.531Z,23.7665
2023-04-09T02:53:56.732Z,23.8331
2023-04-09T02:55:00.644Z,23.8842
2023-04-09T02:56:04.525Z,23.9205
2023-04-09T02:57:08.437Z,23.8996
2023-04-09T02:58:12.312Z,23.9101
2023-04-09T02:59:16.222Z,23.9025
2023-04-09T03:00:20.117Z,23.9621
2023-04-09T03:01:24.035Z,23.9748
2023-04-09T03:02:28.091Z,23.9185
2023-04-09T03:03:32.098Z,23.8669
2023-04-09T03:04:36.033Z,23.9065
2023-04-09T03:05:39.937Z,23.9486
2023-04-09T03:06:44.053Z,23.9381
2023-04-09T03:07:47.959Z,23.8802
2023-04-09T03:08:52.281Z,23.9392
2023-04-09T03:09:56.306Z,23.9221
2023-04-09T03:11:00.184Z,23.8891
2023-04-09T03:12:04.090Z,23.7990
2023-04-09T03:13:07.982Z,23.8233
2023-04-09T03:14:11.879Z,23.7906
2023-04-09T03:15:15.785Z,23.7988
2023-04-09T03:16:19.724Z,23.8188
2023-04-09T03:17:23.593Z,23.7679
2023-04-09T03:18:27.509Z,23.7356
2023-04-09T03:19:31.395Z,23.7040
2023-04-09T03:20:35.291Z,23.7278
2023-04-09T03:21:39.184Z,23.7056
2023-04-09T03:22:43.089Z,23.7414
2023-04-09T03:23:46.974Z,23.7570
2023-04-09T03:24:50.874Z,23.7857
2023-04-09T03:25:54.774Z,23.7848
2023-04-09T03:26:58.887Z,23.7463
2023-04-09T03:28:02.830Z,23.7743
2023-04-09T03:29:06.690Z,23.7583
2023-04-09T03:30:10.595Z,23.7688
2023-04-09T03:31:14.554Z,23.7779
2023-04-09T03:32:19.174Z,23.8004
2023-04-09T03:33:23.053Z,23.8097
2023-04-09T03:34:26.963Z,23.8475
2023-04-09T03:35:30.884Z,23.8751
2023-04-09T03:36:34.777Z,23.8811
2023-04-09T03:37:38.660Z,23.9199
2023-04-09T03:38:42.576Z,23.9187
2023-04-09T03:39:46.693Z,23.8983
2023-04-09T03:40:50.606Z,23.8891
2023-04-09T03:41:54.710Z,23.9054
2023-04-09T03:42:58.632Z,23.9232
2023-04-09T03:44:02.529Z,23.9608
2023-04-09T03:45:06.424Z,23.9586
2023-04-09T03:46:10.327Z,23.9957
2023-04-09T03:47:14.442Z,23.9276
2023-04-09T03:48:18.342Z,23.9434
2023-04-09T03:49:22.472Z,23.9479
2023-04-09T03:50:26.354Z,23.9566
2023-04-09T03:51:30.265Z,23.9466
2023-04-09T03:52:34.153Z,23.9561
2023-04-09T03:53:38.087Z,23.9928
2023-04-09T03:54:42.291Z,24.0053
2023-04-09T03:55:46.198Z,24.0509
2023-04-09T03:56:50.342Z,23.9737
2023-04-09T03:57:54.247Z,23.9786
2023-04-09T03:58:58.174Z,23.9312
2023-04-09T04:00:02.073Z,23.9312
2023-04-09T04:01:05.954Z,23.9288
2023-04-09T04:02:09.934Z,23.9481
2023-04-09T04:03:13.984Z,23.9268
2023-04-09T04:04:20.468Z,23.8827
2023-04-09T04:05:20.558Z,23.9064
2023-04-09T04:06:24.468Z,23.9296
2023-04-09T04:07:28.363Z,23.9659
2023-04-09T04:08:32.280Z,24.0102
2023-04-09T04:09:36.176Z,24.0291
2023-04-09T04:10:40.084Z,23.9739
2023-04-09T04:11:43.973Z,24.0000
2023-04-09T04:12:47.942Z,24.0135
2023-04-09T04:13:51.820Z,24.0558
2023-04-09T04:14:55.739Z,24.0478
2023-04-09T04:15:59.664Z,23.9866
2023-04-09T04:17:03.761Z,23.9501
2023-04-09T04:18:07.648Z,23.9290
2023-04-09T04:19:11.874Z,23.8593
2023-04-09T04:20:15.752Z,23.8660
2023-04-09T04:21:19.657Z,23.8707
2023-04-09T04:22:26.112Z,23.9145
2023-04-09T04:23:24.909Z,23.9273
2023-04-09T04:24:28.799Z,23.9379
2023-04-09T04:25:32.712Z,23.8656
2023-04-09T04:26:36.612Z,23.8355
2023-04-09T04:27:40.525Z,23.8222
2023-04-09T04:28:44.420Z,23.7710
2023-04-09T04:29:44.515Z,23.7105
2023-04-09T04:30:48.406Z,23.6809
2023-04-09T04:31:52.347Z,23.6671
2023-04-09T04:32:56.240Z,23.6688
2023-04-09T04:34:00.195Z,23.6330
2023-04-09T04:35:04.271Z,23.6246
2023-04-09T04:36:08.166Z,23.6386
2023-04-09T04:37:12.292Z,23.6261
2023-04-09T04:38:16.181Z,23.6108
2023-04-09T04:39:20.095Z,23.6295
2023-04-09T04:40:23.960Z,23.6439
2023-04-09T04:41:27.869Z,23.6375
2023-04-09T04:42:31.961Z,23.6631
2023-04-09T04:43:35.867Z,23.6679
2023-04-09T04:44:39.979Z,23.6971
2023-04-09T04:45:43.926Z,23.7018
2023-04-09T04:46:47.799Z,23.6980
2023-04-09T04:47:51.716Z,23.7111
2023-04-09T04:48:55.587Z,23.7056
2023-04-09T04:49:59.501Z,23.7185
2023-04-09T04:51:03.373Z,23.7064
2023-04-09T04:52:07.614Z,23.7140
2023-04-09T04:53:11.499Z,23.6679
2023-04-09T04:54:15.399Z,23.7400
2023-04-09T04:55:19.289Z,23.7202
2023-04-09T04:56:23.194Z,23.7385
2023-04-09T04:57:27.085Z,23.7601
2023-04-09T04:58:31.005Z,23.7728
2023-04-09T04:59:35.111Z,23.7892
2023-04-09T05:00:39.020Z,23.7906
2023-04-09T05:01:43.015Z,23.7768
2023-04-09T05:02:47.263Z,23.7803
2023-04-09T05:03:51.216Z,23.7986
2023-04-09T05:04:55.192Z,23.7892
2023-04-09T05:05:59.078Z,23.8024
2023-04-09T05:07:02.958Z,23.8010
2023-04-09T05:08:06.872Z,23.7955
2023-04-09T05:09:10.765Z,23.7883
2023-04-09T05:10:14.660Z,23.7739
2023-04-09T05:11:18.536Z,23.8001
2023-04-09T05:12:22.690Z,23.7113
2023-04-09T05:13:26.572Z,23.7917
2023-04-09T05:14:30.484Z,23.7872
2023-04-09T05:15:34.361Z,23.8469
2023-04-09T05:16:38.291Z,23.9252
2023-04-09T05:17:42.203Z,23.9866
2023-04-09T05:18:46.106Z,24.0318
2023-04-09T05:19:49.999Z,24.0476
2023-04-09T05:20:53.912Z,24.0629
2023-04-09T05:21:58.004Z,24.1117
2023-04-09T05:23:01.930Z,24.1399
2023-04-09T05:24:05.818Z,24.1700
2023-04-09T05:25:09.701Z,24.1600
2023-04-09T05:26:13.590Z,24.1666
2023-04-09T05:27:17.502Z,24.1818
2023-04-09T05:28:21.401Z,24.1960
2023-04-09T05:29:26.890Z,24.2183
2023-04-09T05:30:30.800Z,24.1815
2023-04-09T05:31:34.681Z,24.2145
2023-04-09T05:32:38.629Z,24.2519
2023-04-09T05:33:42.487Z,24.2536
2023-04-09T05:34:46.395Z,24.2628
2023-04-09T05:35:50.301Z,24.2964
2023-04-09T05:36:54.208Z,24.3293
2023-04-09T05:37:58.293Z,24.3538
2023-04-09T05:39:02.196Z,24.4010
2023-04-09T05:40:06.414Z,24.3985
2023-04-09T05:41:10.314Z,24.4096
2023-04-09T05:42:14.235Z,24.4753
2023-04-09T05:43:18.105Z,24.5098
2023-04-09T05:44:22.007Z,24.5249
2023-04-09T05:45:25.901Z,24.5202
2023-04-09T05:46:29.911Z,24.5133
2023-04-09T05:47:33.886Z,24.5561
2023-04-09T05:48:37.772Z,24.5716
2023-04-09T05:49:41.640Z,24.5487
2023-04-09T05:50:54.475Z,24.5498
2023-04-09T05:51:50.026Z,24.6089
2023-04-09T05:52:53.934Z,24.6224
2023-04-09T05:53:57.820Z,24.6698
2023-04-09T05:55:01.766Z,24.6571
2023-04-09T05:56:05.609Z,24.6773
2023-04-09T05:57:09.760Z,24.7192
2023-04-09T05:58:13.637Z,24.7423
2023-04-09T05:59:17.536Z,24.7570
2023-04-09T06:00:21.637Z,24.7445
2023-04-09T06:01:25.548Z,24.7828
2023-04-09T06:02:29.485Z,24.8320
2023-04-09T06:03:33.470Z,24.7937
2023-04-09T06:04:37.433Z,24.8262
2023-04-09T06:05:41.330Z,24.8598
2023-04-09T06:06:45.205Z,24.7968
2023-04-09T06:07:49.120Z,24.8625
2023-04-09T06:08:53.014Z,24.8438
2023-04-09T06:09:56.910Z,24.8356
2023-04-09T06:11:00.815Z,24.8531
2023-04-09T06:12:04.754Z,24.8912
2023-04-09T06:13:08.600Z,24.8988
2023-04-09T06:14:12.509Z,24.9123
2023-04-09T06:15:16.398Z,24.8625
2023-04-09T06:16:20.335Z,24.8894
2023-04-09T06:17:20.568Z,24.8903
2023-04-09T06:18:24.440Z,24.9359
2023-04-09T06:19:28.345Z,24.9595
2023-04-09T06:20:32.235Z,24.9582
2023-04-09T06:21:36.131Z,24.9466
2023-04-09T06:22:40.012Z,24.9301
2023-04-09T06:23:43.900Z,24.9824
2023-04-09T06:24:48.132Z,25.0000
2023-04-09T06:25:52.056Z,24.9811
2023-04-09T06:26:55.946Z,24.9711
2023-04-09T06:27:59.827Z,24.9450
2023-04-09T06:29:03.695Z,24.9397
2023-04-09T06:30:07.626Z,25.0076
2023-04-09T06:31:11.537Z,25.0178
2023-04-09T06:32:15.624Z,25.0447
2023-04-09T06:33:19.595Z,24.9809
2023-04-09T06:34:23.493Z,25.0728
2023-04-09T06:35:27.399Z,25.1591
2023-04-09T06:36:31.295Z,25.0690
2023-04-09T06:37:35.192Z,25.1351
2023-04-09T06:38:39.086Z,25.0939
2023-04-09T06:39:50.553Z,25.0959
2023-04-09T06:40:47.480Z,25.1236
2023-04-09T06:41:51.373Z,25.0788
2023-04-09T06:42:55.262Z,25.0610
2023-04-09T06:43:59.145Z,25.0434
2023-04-09T06:45:03.060Z,25.0093
2023-04-09T06:46:06.958Z,25.0029
2023-04-09T06:47:10.850Z,25.0323
2023-04-09T06:48:14.951Z,25.0320
2023-04-09T06:49:18.848Z,25.0498
2023-04-09T06:50:22.978Z,25.0656
2023-04-09T06:51:26.862Z,25.0681
2023-04-09T06:52:30.775Z,25.0521
2023-04-09T06:53:34.743Z,25.0516
2023-04-09T06:54:38.594Z,25.0340
2023-04-09T06:55:42.486Z,25.0648
2023-04-09T06:56:46.380Z,25.0719
2023-04-09T06:57:50.583Z,25.0843
2023-04-09T06:58:54.489Z,25.0082
2023-04-09T06:59:58.374Z,25.0011
2023-04-09T07:01:02.298Z,25.0076
2023-04-09T07:02:06.285Z,25.0723
2023-04-09T07:03:10.253Z,25.0919
2023-04-09T07:04:14.201Z,25.0636
2023-04-09T07:05:18.323Z,25.0445
2023-04-09T07:06:22.198Z,25.0930
2023-04-09T07:07:26.315Z,25.1130
2023-04-09T07:08:30.229Z,25.0986
2023-04-09T07:09:34.131Z,25.1030
2023-04-09T07:10:38.015Z,25.1021
2023-04-09T07:11:41.894Z,25.1055
2023-04-09T07:12:45.809Z,25.1093
2023-04-09T07:13:49.692Z,25.0826
2023-04-09T07:14:53.591Z,25.1030
2023-04-09T07:15:57.508Z,25.1088
2023-04-09T07:17:01.428Z,25.1126
2023-04-09T07:18:05.309Z,25.1406
2023-04-09T07:19:09.217Z,25.0950
2023-04-09T07:20:13.314Z,25.1384
2023-04-09T07:21:17.236Z,25.0881
2023-04-09T07:22:21.114Z,25.1044
2023-04-09T07:23:25.021Z,25.1446
2023-04-09T07:24:28.905Z,25.1375
2023-04-09T07:25:32.858Z,25.1255
2023-04-09T07:26:36.706Z,25.1348
2023-04-09T07:27:40.616Z,25.1195
2023-04-09T07:28:44.503Z,25.1104
2023-04-09T07:29:48.429Z,25.1277
2023-04-09T07:30:52.316Z,25.0999
2023-04-09T07:31:56.244Z,25.0768
2023-04-09T07:33:00.520Z,25.1469
2023-04-09T07:34:04.423Z,25.1620
2023-04-09T07:35:08.307Z,25.1478
2023-04-09T07:36:12.463Z,25.1228
2023-04-09T07:37:16.379Z,25.1235
2023-04-09T07:38:20.281Z,25.1099
2023-04-09T07:39:24.174Z,25.1328
2023-04-09T07:40:24.685Z,25.1440
2023-04-09T07:41:28.590Z,25.1851
2023-04-09T07:42:32.698Z,25.1934
2023-04-09T07:43:36.589Z,25.1745
2023-04-09T07:44:40.500Z,25.1466
2023-04-09T07:45:44.411Z,25.1442
2023-04-09T07:46:48.346Z,25.1293
2023-04-09T07:47:52.251Z,25.1315
2023-04-09T07:48:56.137Z,25.0941
2023-04-09T07:50:00.060Z,25.1275
2023-04-09T07:51:04.170Z,25.1478
2023-04-09T07:52:08.083Z,25.2107
2023-04-09T07:53:11.964Z,25.2325
2023-04-09T07:54:15.862Z,25.2570
2023-04-09T07:55:20.022Z,25.2508
2023-04-09T07:56:23.935Z,25.2900
2023-04-09T07:57:27.821Z,25.3164
2023-04-09T07:58:31.714Z,25.3224
2023-04-09T07:59:35.608Z,25.2196
2023-04-09T08:00:36.050Z,25.1915
2023-04-09T08:01:39.968Z,25.2817
2023-04-09T08:02:43.970Z,25.2882
2023-04-09T08:03:48.102Z,25.3614
2023-04-09T08:04:52.109Z,25.3516
2023-04-09T08:05:52.612Z,25.2974
2023-04-09T08:06:56.505Z,25.2839
2023-04-09T08:08:00.425Z,25.3365
2023-04-09T08:09:04.308Z,25.3247
2023-04-09T08:10:08.206Z,25.2811
2023-04-09T08:11:12.102Z,25.3338
2023-04-09T08:12:16.025Z,25.3411
2023-04-09T08:13:19.901Z,25.2888
2023-04-09T08:14:23.807Z,25.2802
2023-04-09T08:15:27.775Z,25.2960
2023-04-09T08:16:31.662Z,25.2935
2023-04-09T08:17:35.540Z,25.2770
2023-04-09T08:18:39.632Z,25.2463
2023-04-09T08:19:43.534Z,25.3554
2023-04-09T08:20:47.647Z,25.3754
2023-04-09T08:21:51.554Z,25.3681
2023-04-09T08:22:55.443Z,25.4337
2023-04-09T08:23:59.358Z,25.4442
2023-04-09T08:25:03.250Z,25.4197
2023-04-09T08:26:07.136Z,25.4030
2023-04-09T08:27:11.036Z,25.4664
2023-04-09T08:28:14.966Z,25.4546
2023-04-09T08:29:18.834Z,25.4617
2023-04-09T08:30:22.782Z,25.5370
2023-04-09T08:31:26.681Z,25.5140
2023-04-09T08:32:30.628Z,25.5096
2023-04-09T08:33:34.498Z,25.4951
2023-04-09T08:34:38.410Z,25.4873
2023-04-09T08:35:42.299Z,25.5105
2023-04-09T08:36:46.249Z,25.4230
2023-04-09T08:37:50.100Z,25.3483
2023-04-09T08:38:54.099Z,25.3716
2023-04-09T08:39:58.122Z,25.3075
2023-04-09T08:41:02.044Z,25.3300
2023-04-09T08:42:05.939Z,25.2441
2023-04-09T08:43:10.067Z,25.3256
2023-04-09T08:44:13.961Z,25.3576
2023-04-09T08:45:17.874Z,25.3222
2023-04-09T08:46:21.779Z,25.3293
2023-04-09T08:47:25.717Z,25.3447
2023-04-09T08:48:29.683Z,25.3362
2023-04-09T08:49:33.576Z,25.3271
2023-04-09T08:50:37.806Z,25.3249
2023-04-09T08:51:41.696Z,25.3271
2023-04-09T08:52:45.600Z,25.3507
2023-04-09T08:53:49.721Z,25.3645
2023-04-09T08:54:53.650Z,25.4077
2023-04-09T08:55:57.550Z,25.4368
2023-04-09T08:57:01.466Z,25.4415
2023-04-09T08:58:05.356Z,25.4669
2023-04-09T08:59:09.260Z,25.4079
2023-04-09T09:00:13.148Z,25.3705
2023-04-09T09:01:17.084Z,25.3540
2023-04-09T09:02:21.035Z,25.3236
2023-04-09T09:03:25.040Z,25.3425
2023-04-09T09:04:29.025Z,25.3396
2023-04-09T09:05:32.940Z,25.2980
2023-04-09T09:06:36.843Z,25.3051
2023-04-09T09:07:40.736Z,25.3269
2023-04-09T09:08:44.629Z,25.2739
2023-04-09T09:09:48.529Z,25.2546
2023-04-09T09:10:52.428Z,25.2114
2023-04-09T09:11:56.336Z,25.1809
2023-04-09T09:13:00.282Z,25.1311
2023-04-09T09:14:04.195Z,25.1429
2023-04-09T09:15:08.093Z,25.2314
2023-04-09T09:16:12.053Z,25.2323
2023-04-09T09:17:15.947Z,25.1678
2023-04-09T09:18:19.850Z,25.1389
2023-04-09T09:19:23.751Z,25.1280
2023-04-09T09:20:27.803Z,25.1077
2023-04-09T09:21:31.758Z,25.1053
2023-04-09T09:22:35.644Z,25.0837
2023-04-09T09:23:39.553Z,25.0690
2023-04-09T09:24:43.450Z,25.0648
2023-04-09T09:25:47.366Z,25.0518
2023-04-09T09:26:51.270Z,25.0683
2023-04-09T09:27:55.422Z,25.1304
2023-04-09T09:28:59.328Z,25.0645
2023-04-09T09:30:03.208Z,25.0728
2023-04-09T09:31:07.119Z,25.0603
2023-04-09T09:32:10.991Z,25.1115
2023-04-09T09:33:14.895Z,25.1115
2023-04-09T09:34:18.821Z,25.0590
2023-04-09T09:35:22.782Z,25.0458
2023-04-09T09:36:26.663Z,25.0381
2023-04-09T09:37:30.562Z,25.0162
2023-04-09T09:38:34.441Z,25.0027
2023-04-09T09:39:38.352Z,24.9931
2023-04-09T09:40:42.240Z,25.0067
2023-04-09T09:41:46.148Z,25.0147
2023-04-09T09:42:50.047Z,24.9887
2023-04-09T09:43:53.946Z,24.9793
2023-04-09T09:44:57.834Z,24.9769
2023-04-09T09:46:02.002Z,24.9755
2023-04-09T09:47:05.931Z,24.9780
2023-04-09T09:48:10.133Z,24.9949
2023-04-09T09:49:14.021Z,24.9838
2023-04-09T09:50:18.017Z,24.9960
2023-04-09T09:51:22.024Z,25.0376
2023-04-09T09:52:26.733Z,25.0316
2023-04-09T09:53:30.647Z,25.0174
2023-04-09T09:54:34.546Z,25.0494
2023-04-09T09:55:38.455Z,25.0249
2023-04-09T09:56:42.365Z,25.0445
2023-04-09T09:57:46.284Z,25.0659
2023-04-09T09:58:50.651Z,25.0941
2023-04-09T09:59:54.688Z,25.1101
2023-04-09T10:00:58.632Z,25.0810
2023-04-09T10:02:02.572Z,25.1175
2023-04-09T10:03:06.869Z,25.1291
2023-04-09T10:04:10.814Z,25.1148
2023-04-09T10:05:14.681Z,25.1956
2023-04-09T10:06:18.577Z,25.1500
2023-04-09T10:07:22.501Z,25.1749
2023-04-09T10:08:26.463Z,25.1860
2023-04-09T10:09:30.401Z,25.1874
2023-04-09T10:10:34.296Z,25.1994
2023-04-09T10:11:38.204Z,25.2337
2023-04-09T10:12:42.116Z,25.2383
2023-04-09T10:13:46.001Z,25.2252
2023-04-09T10:14:49.906Z,25.2279
2023-04-09T10:15:53.897Z,25.2114
2023-04-09T10:16:57.794Z,25.2334
2023-04-09T10:18:01.704Z,25.2103
2023-04-09T10:19:05.593Z,25.1836
2023-04-09T10:20:09.482Z,25.1642
2023-04-09T10:21:13.379Z,25.1696
2023-04-09T10:22:17.261Z,25.1291
2023-04-09T10:23:21.168Z,25.1840
2023-04-09T10:24:25.061Z,25.1840
2023-04-09T10:25:28.961Z,25.2401
2023-04-09T10:26:32.860Z,25.2713
2023-04-09T10:27:36.758Z,25.2134
2023-04-09T10:28:40.655Z,25.2207
2023-04-09T10:29:44.555Z,25.2361
2023-04-09T10:30:48.688Z,25.2873
2023-04-09T10:31:52.574Z,25.2408
2023-04-09T10:32:56.536Z,25.2241
2023-04-09T10:34:00.394Z,25.2733
2023-04-09T10:35:04.326Z,25.2624
2023-04-09T10:36:08.194Z,25.2681
2023-04-09T10:37:12.093Z,25.2385
2023-04-09T10:38:16.013Z,25.2686
2023-04-09T10:39:19.897Z,25.2241
2023-04-09T10:40:23.776Z,25.2443
2023-04-09T10:41:27.718Z,25.2087
2023-04-09T10:42:31.583Z,25.2087
2023-04-09T10:43:35.497Z,25.1687
2023-04-09T10:44:39.378Z,25.1551
2023-04-09T10:45:43.285Z,25.1840
2023-04-09T10:46:47.221Z,25.2370
2023-04-09T10:47:51.169Z,25.2261
2023-04-09T10:48:55.020Z,25.2733
2023-04-09T10:49:58.928Z,25.2158
2023-04-09T10:51:02.817Z,25.2256
2023-04-09T10:52:07.123Z,25.2065
2023-04-09T10:53:07.159Z,25.1833
2023-04-09T10:54:11.084Z,25.1769
2023-04-09T10:55:14.972Z,25.1685
2023-04-09T10:56:18.877Z,25.1393
2023-04-09T10:57:22.762Z,25.1324
2023-04-09T10:58:26.657Z,25.1422
2023-04-09T10:59:30.549Z,25.1796
2023-04-09T11:00:34.463Z,25.1722
2023-04-09T11:01:38.467Z,25.2054
2023-04-09T11:02:42.572Z,25.2065
2023-04-09T11:03:46.552Z,25.1820
2023-04-09T11:04:50.477Z,25.2546
2023-04-09T11:05:54.353Z,25.2254
2023-04-09T11:06:58.233Z,25.1767
2023-04-09T11:08:02.128Z,25.1956
2023-04-09T11:09:02.539Z,25.2532
2023-04-09T11:10:06.452Z,25.2817
2023-04-09T11:11:10.336Z,25.2828
2023-04-09T11:12:14.248Z,25.2630
2023-04-09T11:13:14.458Z,25.1918
2023-04-09T11:14:18.366Z,25.1794
2023-04-09T11:15:22.253Z,25.1629
2023-04-09T11:16:27.883Z,25.1885
2023-04-09T11:17:27.582Z,25.1505
2023-04-09T11:18:27.907Z,25.1413
2023-04-09T11:19:31.787Z,25.1259
2023-04-09T11:20:35.725Z,25.1417
2023-04-09T11:21:39.578Z,25.1371
2023-04-09T11:22:43.488Z,25.1337
2023-04-09T11:23:47.597Z,25.1304
2023-04-09T11:24:51.508Z,25.1275
2023-04-09T11:25:55.614Z,25.1277
2023-04-09T11:26:59.516Z,25.1008
2023-04-09T11:28:03.406Z,25.1186
2023-04-09T11:29:07.305Z,25.1173
2023-04-09T11:30:11.243Z,25.1117
2023-04-09T11:31:15.151Z,25.1433
2023-04-09T11:32:19.000Z,25.1486
2023-04-09T11:33:23.139Z,25.1582
2023-04-09T11:34:27.021Z,25.1651
2023-04-09T11:35:30.984Z,25.2043
2023-04-09T11:36:35.088Z,25.2210
2023-04-09T11:37:38.988Z,25.2357
2023-04-09T11:38:42.881Z,25.3049
2023-04-09T11:39:46.779Z,25.3233
2023-04-09T11:40:50.901Z,25.3273
2023-04-09T11:41:54.821Z,25.3236
2023-04-09T11:42:58.686Z,25.3238
2023-04-09T11:44:02.577Z,25.3623
2023-04-09T11:45:06.496Z,25.3189
2023-04-09T11:46:10.377Z,25.3598
2023-04-09T11:47:14.285Z,25.3538
2023-04-09T11:48:18.228Z,25.3345
2023-04-09T11:49:22.152Z,25.3278
2023-04-09T11:50:26.025Z,25.3725
2023-04-09T11:51:29.928Z,25.3783
2023-04-09T11:52:33.813Z,25.4239
2023-04-09T11:53:37.726Z,25.4321
2023-04-09T11:54:41.624Z,25.4135
2023-04-09T11:55:45.618Z,25.3999
2023-04-09T11:56:49.764Z,25.4184
2023-04-09T11:57:53.679Z,25.4313
2023-04-09T11:58:57.575Z,25.4239
2023-04-09T12:00:03.806Z,25.4159
2023-04-09T12:01:03.897Z,25.4086
2023-04-09T12:02:07.885Z,25.3759
2023-04-09T12:03:12.135Z,25.4148
2023-04-09T12:04:16.587Z,25.4077
2023-04-09T12:05:20.549Z,25.3859
2023-04-09T12:06:24.558Z,25.4115
2023-04-09T12:07:28.437Z,25.4030
2023-04-09T12:08:32.560Z,25.3983
2023-04-09T12:09:36.469Z,25.4112
2023-04-09T12:10:40.339Z,25.4008
2023-04-09T12:11:44.220Z,25.4199
2023-04-09T12:12:48.144Z,25.3727
2023-04-09T12:13:52.033Z,25.3621
2023-04-09T12:14:55.920Z,25.4184
2023-04-09T12:16:00.050Z,25.4148
2023-04-09T12:17:03.967Z,25.4159
2023-04-09T12:18:07.932Z,25.4473
2023-04-09T12:19:12.044Z,25.4355
2023-04-09T12:20:15.954Z,25.3362
2023-04-09T12:21:19.836Z,25.3411
2023-04-09T12:22:23.742Z,25.2913
2023-04-09T12:23:27.641Z,25.2617
2023-04-09T12:24:31.546Z,25.2837
2023-04-09T12:25:35.460Z,25.2497
2023-04-09T12:26:39.338Z,25.2241
2023-04-09T12:27:43.223Z,25.1725
2023-04-09T12:28:47.137Z,25.1520
2023-04-09T12:29:51.019Z,25.1756
2023-04-09T12:30:54.920Z,25.1150
2023-04-09T12:31:58.817Z,25.1406
2023-04-09T12:33:02.735Z,25.1077
2023-04-09T12:34:06.627Z,25.1126
2023-04-09T12:35:10.508Z,25.1593
2023-04-09T12:36:14.436Z,25.1222
2023-04-09T12:37:18.295Z,25.1395
2023-04-09T12:38:22.201Z,25.2303
2023-04-09T12:39:26.106Z,25.2194
2023-04-09T12:40:30.091Z,25.2557
2023-04-09T12:41:34.399Z,25.2535
2023-04-09T12:42:38.314Z,25.2134
2023-04-09T12:43:43.943Z,25.1604
2023-04-09T12:44:42.585Z,25.1862
2023-04-09T12:45:46.483Z,25.1420
2023-04-09T12:46:50.386Z,25.1851
2023-04-09T12:47:54.278Z,25.1560
2023-04-09T12:48:58.359Z,25.2205
2023-04-09T12:50:02.284Z,25.2021
2023-04-09T12:51:06.147Z,25.1836
2023-04-09T12:52:10.055Z,25.1925